sensor_id;sensor_type;location;lat;lon;timestamp;temperature;humidity
7129;DHT22;3606;52.930;8.644;2023-02-11T00:01:10;6.30;11.40
7129;DHT22;3606;52.930;8.644;2023-02-11T00:03:37;6.30;99.90
7129;DHT22;3606;52.930;8.644;2023-02-11T00:06:06;6.40;1.00
7129;DHT22;3606;52.930;8.644;2023-02-11T00:08:34;6.40;1.00
7129;DHT22;3606;52.930;8.644;2023-02-11T00:10:59;6.40;1.00
7129;DHT22;3606;52.930;8.644;2023-02-11T00:13:25;6.40;1.00
7129;DHT22;3606;52.930;8.644;2023-02-11T00:15:51;6.40;1.00
7129;DHT22;3606;52.930;8.644;2023-02-11T00:18:17;6.40;1.00
7129;DHT22;3606;52.930;8.644;2023-02-11T00:20:43;6.40;1.00
7129;DHT22;3606;52.930;8.644;2023-02-11T00:23:08;6.40;1.00
7129;DHT22;3606;52.930;8.644;2023-02-11T00:25:39;6.40;1.00
7129;DHT22;3606;52.930;8.644;2023-02-11T00:28:05;6.40;1.00
7129;DHT22;3606;52.930;8.644;2023-02-11T00:30:31;6.40;1.00
7129;DHT22;3606;52.930;8.644;2023-02-11T00:32:56;6.50;1.00
7129;DHT22;3606;52.930;8.644;2023-02-11T00:35:22;6.40;1.00
7129;DHT22;3606;52.930;8.644;2023-02-11T00:37:47;6.50;1.00
7129;DHT22;3606;52.930;8.644;2023-02-11T00:40:14;6.40;1.00
7129;DHT22;3606;52.930;8.644;2023-02-11T00:42:41;6.50;1.00
7129;DHT22;3606;52.930;8.644;2023-02-11T00:45:07;6.50;1.00
7129;DHT22;3606;52.930;8.644;2023-02-11T00:47:34;6.50;1.00
7129;DHT22;3606;52.930;8.644;2023-02-11T00:50:00;6.50;1.00
7129;DHT22;3606;52.930;8.644;2023-02-11T00:52:26;6.50;1.00
7129;DHT22;3606;52.930;8.644;2023-02-11T00:54:52;6.50;1.00
7129;DHT22;3606;52.930;8.644;2023-02-11T00:57:17;6.50;1.00
7129;DHT22;3606;52.930;8.644;2023-02-11T00:59:43;6.50;39.90
7129;DHT22;3606;52.930;8.644;2023-02-11T01:02:08;6.50;1.00
7129;DHT22;3606;52.930;8.644;2023-02-11T01:04:34;6.50;1.00
7129;DHT22;3606;52.930;8.644;2023-02-11T01:06:59;6.50;99.50
7129;DHT22;3606;52.930;8.644;2023-02-11T01:09:25;6.50;99.90
7129;DHT22;3606;52.930;8.644;2023-02-11T01:11:51;6.50;99.90
7129;DHT22;3606;52.930;8.644;2023-02-11T01:14:16;6.50;99.90
7129;DHT22;3606;52.930;8.644;2023-02-11T01:16:42;6.60;1.00
7129;DHT22;3606;52.930;8.644;2023-02-11T01:19:08;6.60;10.00
7129;DHT22;3606;52.930;8.644;2023-02-11T01:21:33;6.50;40.10
7129;DHT22;3606;52.930;8.644;2023-02-11T01:23:59;6.50;99.90
7129;DHT22;3606;52.930;8.644;2023-02-11T01:26:24;6.60;93.80
7129;DHT22;3606;52.930;8.644;2023-02-11T01:28:50;6.60;99.90
7129;DHT22;3606;52.930;8.644;2023-02-11T01:31:16;6.50;99.90
7129;DHT22;3606;52.930;8.644;2023-02-11T01:33:41;6.50;99.90
7129;DHT22;3606;52.930;8.644;2023-02-11T01:36:07;6.50;99.90
7129;DHT22;3606;52.930;8.644;2023-02-11T01:38:33;6.60;99.90
7129;DHT22;3606;52.930;8.644;2023-02-11T01:41:01;6.60;99.90
7129;DHT22;3606;52.930;8.644;2023-02-11T01:43:30;6.50;99.90
7129;DHT22;3606;52.930;8.644;2023-02-11T01:46:25;6.60;99.90
7129;DHT22;3606;52.930;8.644;2023-02-11T01:48:52;6.60;99.90
7129;DHT22;3606;52.930;8.644;2023-02-11T01:53:49;6.60;99.90
7129;DHT22;3606;52.930;8.644;2023-02-11T01:56:37;6.60;99.90
7129;DHT22;3606;52.930;8.644;2023-02-11T02:00:20;6.60;99.90
7129;DHT22;3606;52.930;8.644;2023-02-11T02:02:23;6.60;99.90
7129;DHT22;3606;52.930;8.644;2023-02-11T02:07:57;6.60;99.90
7129;DHT22;3606;52.930;8.644;2023-02-11T02:10:26;6.60;99.90
7129;DHT22;3606;52.930;8.644;2023-02-11T02:12:52;6.60;99.90
7129;DHT22;3606;52.930;8.644;2023-02-11T02:15:32;6.60;99.90
7129;DHT22;3606;52.930;8.644;2023-02-11T02:28:42;6.70;99.90
7129;DHT22;3606;52.930;8.644;2023-02-11T02:36:19;6.70;99.90
7129;DHT22;3606;52.930;8.644;2023-02-11T02:39:07;6.70;99.90
7129;DHT22;3606;52.930;8.644;2023-02-11T02:41:34;6.70;99.90
7129;DHT22;3606;52.930;8.644;2023-02-11T02:44:01;6.70;1.00
7129;DHT22;3606;52.930;8.644;2023-02-11T02:46:31;6.70;99.90
7129;DHT22;3606;52.930;8.644;2023-02-11T02:48:57;6.70;99.90
7129;DHT22;3606;52.930;8.644;2023-02-11T02:51:32;6.70;99.90
7129;DHT22;3606;52.930;8.644;2023-02-11T02:54:33;6.70;1.00
7129;DHT22;3606;52.930;8.644;2023-02-11T03:05:29;6.70;1.00
7129;DHT22;3606;52.930;8.644;2023-02-11T03:08:11;6.70;1.00
7129;DHT22;3606;52.930;8.644;2023-02-11T03:10:42;6.70;1.00
7129;DHT22;3606;52.930;8.644;2023-02-11T03:13:10;6.70;1.00
7129;DHT22;3606;52.930;8.644;2023-02-11T03:15:48;6.70;1.00
7129;DHT22;3606;52.930;8.644;2023-02-11T03:18:18;6.80;1.00
7129;DHT22;3606;52.930;8.644;2023-02-11T03:20:48;6.80;1.00
7129;DHT22;3606;52.930;8.644;2023-02-11T03:23:58;6.80;1.00
7129;DHT22;3606;52.930;8.644;2023-02-11T03:26:16;6.80;1.00
7129;DHT22;3606;52.930;8.644;2023-02-11T03:28:57;6.80;1.00
7129;DHT22;3606;52.930;8.644;2023-02-11T03:31:58;6.90;1.00
7129;DHT22;3606;52.930;8.644;2023-02-11T03:34:42;6.90;1.00
7129;DHT22;3606;52.930;8.644;2023-02-11T03:37:33;6.90;1.00
7129;DHT22;3606;52.930;8.644;2023-02-11T03:40:04;6.90;1.00
7129;DHT22;3606;52.930;8.644;2023-02-11T03:42:43;6.90;1.00
7129;DHT22;3606;52.930;8.644;2023-02-11T03:45:12;6.90;1.00
7129;DHT22;3606;52.930;8.644;2023-02-11T03:47:44;6.90;1.00
7129;DHT22;3606;52.930;8.644;2023-02-11T03:50:12;7.00;1.00
7129;DHT22;3606;52.930;8.644;2023-02-11T03:52:39;7.00;1.00
7129;DHT22;3606;52.930;8.644;2023-02-11T03:55:14;7.00;1.00
7129;DHT22;3606;52.930;8.644;2023-02-11T03:57:40;7.00;1.00
7129;DHT22;3606;52.930;8.644;2023-02-11T04:00:07;7.10;1.00
7129;DHT22;3606;52.930;8.644;2023-02-11T04:02:36;7.00;1.00
7129;DHT22;3606;52.930;8.644;2023-02-11T04:05:03;7.00;1.00
7129;DHT22;3606;52.930;8.644;2023-02-11T04:07:28;7.00;1.00
7129;DHT22;3606;52.930;8.644;2023-02-11T04:09:54;7.00;1.00
7129;DHT22;3606;52.930;8.644;2023-02-11T04:12:20;7.00;1.00
7129;DHT22;3606;52.930;8.644;2023-02-11T04:14:46;7.00;1.00
7129;DHT22;3606;52.930;8.644;2023-02-11T04:17:12;7.00;1.00
7129;DHT22;3606;52.930;8.644;2023-02-11T04:19:37;7.10;1.00
7129;DHT22;3606;52.930;8.644;2023-02-11T04:22:03;7.10;1.00
7129;DHT22;3606;52.930;8.644;2023-02-11T04:24:29;7.10;1.00
7129;DHT22;3606;52.930;8.644;2023-02-11T04:26:55;7.10;1.00
7129;DHT22;3606;52.930;8.644;2023-02-11T04:29:20;7.10;1.00
7129;DHT22;3606;52.930;8.644;2023-02-11T04:31:47;7.10;1.00
7129;DHT22;3606;52.930;8.644;2023-02-11T04:34:13;7.10;1.00
7129;DHT22;3606;52.930;8.644;2023-02-11T04:36:38;7.10;1.00
7129;DHT22;3606;52.930;8.644;2023-02-11T04:39:04;7.10;1.00
7129;DHT22;3606;52.930;8.644;2023-02-11T04:41:30;7.10;1.00
7129;DHT22;3606;52.930;8.644;2023-02-11T04:43:55;7.10;1.00
7129;DHT22;3606;52.930;8.644;2023-02-11T04:46:21;7.10;1.00
7129;DHT22;3606;52.930;8.644;2023-02-11T04:48:46;7.10;1.00
7129;DHT22;3606;52.930;8.644;2023-02-11T04:51:12;7.10;1.00
7129;DHT22;3606;52.930;8.644;2023-02-11T04:53:37;7.10;1.00
7129;DHT22;3606;52.930;8.644;2023-02-11T04:56:03;7.10;1.00
7129;DHT22;3606;52.930;8.644;2023-02-11T04:58:29;7.10;1.00
7129;DHT22;3606;52.930;8.644;2023-02-11T05:00:55;7.00;1.00
7129;DHT22;3606;52.930;8.644;2023-02-11T05:03:20;7.00;1.00
7129;DHT22;3606;52.930;8.644;2023-02-11T05:05:46;7.00;1.00
7129;DHT22;3606;52.930;8.644;2023-02-11T05:08:12;7.10;1.00
7129;DHT22;3606;52.930;8.644;2023-02-11T05:10:38;7.10;1.00
7129;DHT22;3606;52.930;8.644;2023-02-11T05:13:03;7.10;1.00
7129;DHT22;3606;52.930;8.644;2023-02-11T05:15:29;7.10;1.00
7129;DHT22;3606;52.930;8.644;2023-02-11T05:17:55;7.10;1.00
7129;DHT22;3606;52.930;8.644;2023-02-11T05:20:21;7.10;1.00
7129;DHT22;3606;52.930;8.644;2023-02-11T05:22:46;7.10;1.00
7129;DHT22;3606;52.930;8.644;2023-02-11T05:25:12;7.10;1.00
7129;DHT22;3606;52.930;8.644;2023-02-11T05:27:38;7.10;1.00
7129;DHT22;3606;52.930;8.644;2023-02-11T05:30:05;7.10;1.00
7129;DHT22;3606;52.930;8.644;2023-02-11T05:32:31;7.10;1.00
7129;DHT22;3606;52.930;8.644;2023-02-11T05:34:56;7.10;1.00
7129;DHT22;3606;52.930;8.644;2023-02-11T05:37:22;7.10;1.00
7129;DHT22;3606;52.930;8.644;2023-02-11T05:39:47;7.10;1.00
7129;DHT22;3606;52.930;8.644;2023-02-11T05:42:13;7.10;1.00
7129;DHT22;3606;52.930;8.644;2023-02-11T05:44:39;7.20;1.00
7129;DHT22;3606;52.930;8.644;2023-02-11T05:47:05;7.10;1.00
7129;DHT22;3606;52.930;8.644;2023-02-11T05:49:33;7.10;1.00
7129;DHT22;3606;52.930;8.644;2023-02-11T05:51:58;7.10;7.10
7129;DHT22;3606;52.930;8.644;2023-02-11T05:54:24;7.10;2.50
7129;DHT22;3606;52.930;8.644;2023-02-11T05:56:50;7.10;27.90
7129;DHT22;3606;52.930;8.644;2023-02-11T05:59:15;7.10;84.50
7129;DHT22;3606;52.930;8.644;2023-02-11T06:01:41;7.10;99.90
7129;DHT22;3606;52.930;8.644;2023-02-11T06:04:07;7.10;99.90
7129;DHT22;3606;52.930;8.644;2023-02-11T06:06:32;7.10;99.90
7129;DHT22;3606;52.930;8.644;2023-02-11T06:08:58;7.10;99.90
7129;DHT22;3606;52.930;8.644;2023-02-11T06:11:23;7.00;99.90
7129;DHT22;3606;52.930;8.644;2023-02-11T06:13:49;7.00;99.90
7129;DHT22;3606;52.930;8.644;2023-02-11T06:16:15;7.00;99.90
7129;DHT22;3606;52.930;8.644;2023-02-11T06:18:41;7.00;99.90
7129;DHT22;3606;52.930;8.644;2023-02-11T06:21:10;7.00;99.90
7129;DHT22;3606;52.930;8.644;2023-02-11T06:23:36;7.00;99.90
7129;DHT22;3606;52.930;8.644;2023-02-11T06:26:07;7.00;99.90
7129;DHT22;3606;52.930;8.644;2023-02-11T06:28:33;6.90;99.90
7129;DHT22;3606;52.930;8.644;2023-02-11T06:31:09;6.90;99.90
7129;DHT22;3606;52.930;8.644;2023-02-11T06:33:36;6.90;99.90
7129;DHT22;3606;52.930;8.644;2023-02-11T06:36:03;6.90;99.90
7129;DHT22;3606;52.930;8.644;2023-02-11T06:38:29;6.90;99.90
7129;DHT22;3606;52.930;8.644;2023-02-11T06:40:54;6.90;99.90
7129;DHT22;3606;52.930;8.644;2023-02-11T06:43:20;7.00;99.90
7129;DHT22;3606;52.930;8.644;2023-02-11T06:45:54;7.00;99.90
7129;DHT22;3606;52.930;8.644;2023-02-11T06:48:20;7.00;99.90
7129;DHT22;3606;52.930;8.644;2023-02-11T06:50:46;7.00;99.90
7129;DHT22;3606;52.930;8.644;2023-02-11T06:53:11;7.00;99.90
7129;DHT22;3606;52.930;8.644;2023-02-11T06:55:37;7.10;99.90
7129;DHT22;3606;52.930;8.644;2023-02-11T06:58:03;7.10;99.90
7129;DHT22;3606;52.930;8.644;2023-02-11T07:00:28;7.10;99.90
7129;DHT22;3606;52.930;8.644;2023-02-11T07:02:54;7.20;99.90
7129;DHT22;3606;52.930;8.644;2023-02-11T07:05:20;7.20;99.90
7129;DHT22;3606;52.930;8.644;2023-02-11T07:07:45;7.20;99.90
7129;DHT22;3606;52.930;8.644;2023-02-11T07:10:11;7.20;99.90
7129;DHT22;3606;52.930;8.644;2023-02-11T07:12:37;7.20;99.90
7129;DHT22;3606;52.930;8.644;2023-02-11T07:15:03;7.30;99.90
7129;DHT22;3606;52.930;8.644;2023-02-11T07:17:29;7.20;99.90
7129;DHT22;3606;52.930;8.644;2023-02-11T07:19:54;7.30;99.90
7129;DHT22;3606;52.930;8.644;2023-02-11T07:22:20;7.30;99.90
7129;DHT22;3606;52.930;8.644;2023-02-11T07:24:45;7.30;99.90
7129;DHT22;3606;52.930;8.644;2023-02-11T07:27:11;7.30;99.90
7129;DHT22;3606;52.930;8.644;2023-02-11T07:29:37;7.30;99.90
7129;DHT22;3606;52.930;8.644;2023-02-11T07:32:02;7.40;99.90
7129;DHT22;3606;52.930;8.644;2023-02-11T07:34:28;7.50;99.90
7129;DHT22;3606;52.930;8.644;2023-02-11T07:36:53;7.50;99.90
7129;DHT22;3606;52.930;8.644;2023-02-11T07:39:19;7.50;99.90
7129;DHT22;3606;52.930;8.644;2023-02-11T07:41:46;7.50;99.90
7129;DHT22;3606;52.930;8.644;2023-02-11T07:44:13;7.50;99.90
7129;DHT22;3606;52.930;8.644;2023-02-11T07:46:39;7.50;99.90
7129;DHT22;3606;52.930;8.644;2023-02-11T07:49:09;7.60;99.90
7129;DHT22;3606;52.930;8.644;2023-02-11T07:51:35;7.60;99.90
7129;DHT22;3606;52.930;8.644;2023-02-11T07:54:01;7.60;99.90
7129;DHT22;3606;52.930;8.644;2023-02-11T07:56:27;7.60;99.90
7129;DHT22;3606;52.930;8.644;2023-02-11T07:58:54;7.60;99.90
7129;DHT22;3606;52.930;8.644;2023-02-11T08:01:23;7.70;99.90
7129;DHT22;3606;52.930;8.644;2023-02-11T08:03:49;7.70;99.90
7129;DHT22;3606;52.930;8.644;2023-02-11T08:06:16;7.70;99.90
7129;DHT22;3606;52.930;8.644;2023-02-11T08:08:42;7.80;99.90
7129;DHT22;3606;52.930;8.644;2023-02-11T08:11:14;7.80;99.90
7129;DHT22;3606;52.930;8.644;2023-02-11T08:13:40;7.80;99.90
7129;DHT22;3606;52.930;8.644;2023-02-11T08:16:07;7.90;99.90
7129;DHT22;3606;52.930;8.644;2023-02-11T08:18:33;7.90;99.90
7129;DHT22;3606;52.930;8.644;2023-02-11T08:21:07;8.00;99.90
7129;DHT22;3606;52.930;8.644;2023-02-11T08:23:34;8.00;99.90
7129;DHT22;3606;52.930;8.644;2023-02-11T08:26:11;8.10;99.90
7129;DHT22;3606;52.930;8.644;2023-02-11T08:28:39;8.00;99.90
7129;DHT22;3606;52.930;8.644;2023-02-11T08:31:10;8.10;99.90
7129;DHT22;3606;52.930;8.644;2023-02-11T08:33:36;8.20;99.90
7129;DHT22;3606;52.930;8.644;2023-02-11T08:36:09;8.20;99.90
7129;DHT22;3606;52.930;8.644;2023-02-11T08:38:35;8.20;99.90
7129;DHT22;3606;52.930;8.644;2023-02-11T08:41:01;8.30;99.90
7129;DHT22;3606;52.930;8.644;2023-02-11T08:43:26;8.30;99.90
7129;DHT22;3606;52.930;8.644;2023-02-11T08:45:52;8.30;99.90
7129;DHT22;3606;52.930;8.644;2023-02-11T08:48:17;8.30;99.90
7129;DHT22;3606;52.930;8.644;2023-02-11T08:50:43;8.30;99.90
7129;DHT22;3606;52.930;8.644;2023-02-11T08:53:08;8.30;99.90
7129;DHT22;3606;52.930;8.644;2023-02-11T08:55:34;8.30;99.90
7129;DHT22;3606;52.930;8.644;2023-02-11T08:58:00;8.30;99.90
7129;DHT22;3606;52.930;8.644;2023-02-11T09:00:25;8.40;99.90
7129;DHT22;3606;52.930;8.644;2023-02-11T09:02:51;8.30;99.90
7129;DHT22;3606;52.930;8.644;2023-02-11T09:05:17;8.40;99.90
7129;DHT22;3606;52.930;8.644;2023-02-11T09:07:42;8.40;99.90
7129;DHT22;3606;52.930;8.644;2023-02-11T09:10:08;8.40;99.90
7129;DHT22;3606;52.930;8.644;2023-02-11T09:12:33;8.50;99.90
7129;DHT22;3606;52.930;8.644;2023-02-11T09:14:59;8.50;99.90
7129;DHT22;3606;52.930;8.644;2023-02-11T09:17:25;8.50;99.90
7129;DHT22;3606;52.930;8.644;2023-02-11T09:19:50;8.50;99.90
7129;DHT22;3606;52.930;8.644;2023-02-11T09:22:16;8.50;99.90
7129;DHT22;3606;52.930;8.644;2023-02-11T09:24:41;8.50;99.90
7129;DHT22;3606;52.930;8.644;2023-02-11T09:27:07;8.50;99.90
7129;DHT22;3606;52.930;8.644;2023-02-11T09:29:32;8.50;99.90
7129;DHT22;3606;52.930;8.644;2023-02-11T09:31:58;8.50;99.90
7129;DHT22;3606;52.930;8.644;2023-02-11T09:34:23;8.40;99.90
7129;DHT22;3606;52.930;8.644;2023-02-11T09:36:49;8.50;99.90
7129;DHT22;3606;52.930;8.644;2023-02-11T09:39:16;8.50;99.90
7129;DHT22;3606;52.930;8.644;2023-02-11T09:44:46;8.40;99.90
7129;DHT22;3606;52.930;8.644;2023-02-11T09:50:03;8.30;99.90
7129;DHT22;3606;52.930;8.644;2023-02-11T09:52:40;8.30;99.90
7129;DHT22;3606;52.930;8.644;2023-02-11T09:55:20;8.30;99.90
7129;DHT22;3606;52.930;8.644;2023-02-11T09:57:47;8.30;99.90
7129;DHT22;3606;52.930;8.644;2023-02-11T10:09:03;8.40;99.90
7129;DHT22;3606;52.930;8.644;2023-02-11T10:14:43;8.40;99.90
7129;DHT22;3606;52.930;8.644;2023-02-11T10:17:25;8.40;99.90
7129;DHT22;3606;52.930;8.644;2023-02-11T10:22:45;8.50;99.90
7129;DHT22;3606;52.930;8.644;2023-02-11T10:28:05;8.60;99.90
7129;DHT22;3606;52.930;8.644;2023-02-11T10:30:53;8.60;99.90
7129;DHT22;3606;52.930;8.644;2023-02-11T10:33:29;8.50;99.90
7129;DHT22;3606;52.930;8.644;2023-02-11T10:35:55;8.50;99.90
7129;DHT22;3606;52.930;8.644;2023-02-11T10:38:21;8.50;99.90
7129;DHT22;3606;52.930;8.644;2023-02-11T10:40:46;8.50;99.90
7129;DHT22;3606;52.930;8.644;2023-02-11T10:43:17;8.50;99.90
7129;DHT22;3606;52.930;8.644;2023-02-11T10:45:52;8.50;99.90
7129;DHT22;3606;52.930;8.644;2023-02-11T10:48:43;8.50;99.90
7129;DHT22;3606;52.930;8.644;2023-02-11T10:53:38;8.60;99.90
7129;DHT22;3606;52.930;8.644;2023-02-11T10:56:05;8.60;99.90
7129;DHT22;3606;52.930;8.644;2023-02-11T10:58:39;8.60;99.90
7129;DHT22;3606;52.930;8.644;2023-02-11T11:01:06;8.60;99.90
7129;DHT22;3606;52.930;8.644;2023-02-11T11:03:36;8.70;99.90
7129;DHT22;3606;52.930;8.644;2023-02-11T11:06:07;8.70;99.90
7129;DHT22;3606;52.930;8.644;2023-02-11T11:08:51;8.70;99.90
7129;DHT22;3606;52.930;8.644;2023-02-11T11:11:21;8.70;99.90
7129;DHT22;3606;52.930;8.644;2023-02-11T11:14:00;8.80;99.90
7129;DHT22;3606;52.930;8.644;2023-02-11T11:16:32;8.90;99.90
7129;DHT22;3606;52.930;8.644;2023-02-11T11:21:36;9.00;99.90
7129;DHT22;3606;52.930;8.644;2023-02-11T11:24:04;9.00;99.90
7129;DHT22;3606;52.930;8.644;2023-02-11T11:26:43;8.90;99.90
7129;DHT22;3606;52.930;8.644;2023-02-11T11:29:15;8.90;99.90
7129;DHT22;3606;52.930;8.644;2023-02-11T11:32:00;9.00;99.90
7129;DHT22;3606;52.930;8.644;2023-02-11T11:34:30;9.00;99.90
7129;DHT22;3606;52.930;8.644;2023-02-11T11:36:57;9.00;99.90
7129;DHT22;3606;52.930;8.644;2023-02-11T11:39:25;8.90;99.90
7129;DHT22;3606;52.930;8.644;2023-02-11T11:41:58;8.90;99.90
7129;DHT22;3606;52.930;8.644;2023-02-11T11:47:16;9.00;99.90
7129;DHT22;3606;52.930;8.644;2023-02-11T11:50:10;9.10;99.90
7129;DHT22;3606;52.930;8.644;2023-02-11T11:52:59;9.10;99.90
7129;DHT22;3606;52.930;8.644;2023-02-11T11:55:36;9.10;99.90
7129;DHT22;3606;52.930;8.644;2023-02-11T11:58:04;9.00;99.90
7129;DHT22;3606;52.930;8.644;2023-02-11T12:08:47;9.10;99.90
7129;DHT22;3606;52.930;8.644;2023-02-11T12:31:19;9.20;99.90
7129;DHT22;3606;52.930;8.644;2023-02-11T12:39:31;9.50;99.90
7129;DHT22;3606;52.930;8.644;2023-02-11T12:45:29;9.60;99.90
7129;DHT22;3606;52.930;8.644;2023-02-11T12:48:17;9.60;99.90
7129;DHT22;3606;52.930;8.644;2023-02-11T12:51:14;9.60;99.90
7129;DHT22;3606;52.930;8.644;2023-02-11T12:56:30;9.50;99.90
7129;DHT22;3606;52.930;8.644;2023-02-11T12:59:01;9.40;99.90
7129;DHT22;3606;52.930;8.644;2023-02-11T13:01:37;9.40;99.90
7129;DHT22;3606;52.930;8.644;2023-02-11T13:04:26;9.40;99.90
7129;DHT22;3606;52.930;8.644;2023-02-11T13:06:58;9.50;99.90
7129;DHT22;3606;52.930;8.644;2023-02-11T13:09:32;9.50;99.90
7129;DHT22;3606;52.930;8.644;2023-02-11T13:12:01;9.60;99.90
7129;DHT22;3606;52.930;8.644;2023-02-11T13:14:49;9.60;99.90
7129;DHT22;3606;52.930;8.644;2023-02-11T13:17:35;9.60;99.90
7129;DHT22;3606;52.930;8.644;2023-02-11T13:20:31;9.70;99.90
7129;DHT22;3606;52.930;8.644;2023-02-11T13:23:29;9.70;99.90
7129;DHT22;3606;52.930;8.644;2023-02-11T13:26:07;9.80;99.90
7129;DHT22;3606;52.930;8.644;2023-02-11T13:28:46;9.90;99.90
7129;DHT22;3606;52.930;8.644;2023-02-11T13:31:14;9.80;99.90
7129;DHT22;3606;52.930;8.644;2023-02-11T13:33:41;9.80;99.90
7129;DHT22;3606;52.930;8.644;2023-02-11T13:38:34;9.80;99.90
7129;DHT22;3606;52.930;8.644;2023-02-11T13:41:18;9.80;99.90
7129;DHT22;3606;52.930;8.644;2023-02-11T13:44:29;9.70;99.90
7129;DHT22;3606;52.930;8.644;2023-02-11T13:46:56;9.70;99.90
7129;DHT22;3606;52.930;8.644;2023-02-11T13:49:28;9.80;99.90
7129;DHT22;3606;52.930;8.644;2023-02-11T13:51:55;9.80;99.90
7129;DHT22;3606;52.930;8.644;2023-02-11T13:55:06;9.80;99.90
7129;DHT22;3606;52.930;8.644;2023-02-11T13:59:48;9.60;99.90
7129;DHT22;3606;52.930;8.644;2023-02-11T14:05:31;9.80;99.90
7129;DHT22;3606;52.930;8.644;2023-02-11T14:08:21;9.90;99.90
7129;DHT22;3606;52.930;8.644;2023-02-11T14:14:18;9.80;99.90
7129;DHT22;3606;52.930;8.644;2023-02-11T14:24:50;9.80;99.90
7129;DHT22;3606;52.930;8.644;2023-02-11T14:27:45;9.80;99.90
7129;DHT22;3606;52.930;8.644;2023-02-11T14:30:41;9.70;99.90
7129;DHT22;3606;52.930;8.644;2023-02-11T14:41:26;9.90;99.90
7129;DHT22;3606;52.930;8.644;2023-02-11T14:43:56;9.80;99.90
7129;DHT22;3606;52.930;8.644;2023-02-11T14:46:24;9.80;99.90
7129;DHT22;3606;52.930;8.644;2023-02-11T14:48:53;9.70;99.90
7129;DHT22;3606;52.930;8.644;2023-02-11T14:51:30;9.70;99.90
7129;DHT22;3606;52.930;8.644;2023-02-11T14:54:08;9.70;99.90
7129;DHT22;3606;52.930;8.644;2023-02-11T14:56:39;9.70;99.90
7129;DHT22;3606;52.930;8.644;2023-02-11T14:59:17;9.70;99.90
7129;DHT22;3606;52.930;8.644;2023-02-11T15:01:52;9.70;99.90
7129;DHT22;3606;52.930;8.644;2023-02-11T15:04:30;9.70;99.90
7129;DHT22;3606;52.930;8.644;2023-02-11T15:06:58;9.80;99.90
7129;DHT22;3606;52.930;8.644;2023-02-11T15:09:40;9.70;99.90
7129;DHT22;3606;52.930;8.644;2023-02-11T15:12:22;9.70;99.90
7129;DHT22;3606;52.930;8.644;2023-02-11T15:14:52;9.60;99.90
7129;DHT22;3606;52.930;8.644;2023-02-11T15:17:22;9.60;99.90
7129;DHT22;3606;52.930;8.644;2023-02-11T15:19:51;9.70;99.90
7129;DHT22;3606;52.930;8.644;2023-02-11T15:22:29;9.80;99.90
7129;DHT22;3606;52.930;8.644;2023-02-11T15:25:10;9.80;99.90
7129;DHT22;3606;52.930;8.644;2023-02-11T15:27:38;9.80;99.90
7129;DHT22;3606;52.930;8.644;2023-02-11T15:32:49;9.70;99.90
7129;DHT22;3606;52.930;8.644;2023-02-11T15:35:16;9.70;99.90
7129;DHT22;3606;52.930;8.644;2023-02-11T15:37:43;9.60;99.90
7129;DHT22;3606;52.930;8.644;2023-02-11T15:40:18;9.60;99.90
7129;DHT22;3606;52.930;8.644;2023-02-11T15:45:40;9.60;99.90
7129;DHT22;3606;52.930;8.644;2023-02-11T15:48:18;9.60;99.90
7129;DHT22;3606;52.930;8.644;2023-02-11T15:50:54;9.60;99.90
7129;DHT22;3606;52.930;8.644;2023-02-11T15:53:26;9.60;99.90
7129;DHT22;3606;52.930;8.644;2023-02-11T15:56:01;9.60;99.90
7129;DHT22;3606;52.930;8.644;2023-02-11T15:58:28;9.60;99.90
7129;DHT22;3606;52.930;8.644;2023-02-11T16:00:54;9.60;99.90
7129;DHT22;3606;52.930;8.644;2023-02-11T16:03:26;9.50;99.90
7129;DHT22;3606;52.930;8.644;2023-02-11T16:05:53;9.50;99.90
7129;DHT22;3606;52.930;8.644;2023-02-11T16:08:22;9.60;99.90
7129;DHT22;3606;52.930;8.644;2023-02-11T16:11:03;9.50;99.90
7129;DHT22;3606;52.930;8.644;2023-02-11T16:13:45;9.50;99.90
7129;DHT22;3606;52.930;8.644;2023-02-11T16:16:26;9.50;99.90
7129;DHT22;3606;52.930;8.644;2023-02-11T16:18:54;9.50;99.90
7129;DHT22;3606;52.930;8.644;2023-02-11T16:21:26;9.50;99.90
7129;DHT22;3606;52.930;8.644;2023-02-11T16:23:56;9.50;99.90
7129;DHT22;3606;52.930;8.644;2023-02-11T16:26:31;9.40;99.90
7129;DHT22;3606;52.930;8.644;2023-02-11T16:29:04;9.50;99.90
7129;DHT22;3606;52.930;8.644;2023-02-11T16:31:35;9.40;99.90
7129;DHT22;3606;52.930;8.644;2023-02-11T16:34:01;9.40;99.90
7129;DHT22;3606;52.930;8.644;2023-02-11T16:36:27;9.40;99.90
7129;DHT22;3606;52.930;8.644;2023-02-11T16:38:52;9.40;99.90
7129;DHT22;3606;52.930;8.644;2023-02-11T16:41:18;9.40;99.90
7129;DHT22;3606;52.930;8.644;2023-02-11T16:43:44;9.40;99.90
7129;DHT22;3606;52.930;8.644;2023-02-11T16:46:13;9.40;99.90
7129;DHT22;3606;52.930;8.644;2023-02-11T16:48:40;9.40;99.90
7129;DHT22;3606;52.930;8.644;2023-02-11T16:51:05;9.40;99.90
7129;DHT22;3606;52.930;8.644;2023-02-11T16:53:33;9.40;99.90
7129;DHT22;3606;52.930;8.644;2023-02-11T16:55:59;9.40;99.90
7129;DHT22;3606;52.930;8.644;2023-02-11T16:58:24;9.40;99.90
7129;DHT22;3606;52.930;8.644;2023-02-11T17:00:50;9.30;99.90
7129;DHT22;3606;52.930;8.644;2023-02-11T17:03:22;9.30;99.90
7129;DHT22;3606;52.930;8.644;2023-02-11T17:05:49;9.30;99.90
7129;DHT22;3606;52.930;8.644;2023-02-11T17:08:14;9.30;99.90
7129;DHT22;3606;52.930;8.644;2023-02-11T17:10:40;9.30;99.90
7129;DHT22;3606;52.930;8.644;2023-02-11T17:13:06;9.30;99.90
7129;DHT22;3606;52.930;8.644;2023-02-11T17:15:32;9.30;99.90
7129;DHT22;3606;52.930;8.644;2023-02-11T17:17:58;9.30;99.90
7129;DHT22;3606;52.930;8.644;2023-02-11T17:20:24;9.30;99.90
7129;DHT22;3606;52.930;8.644;2023-02-11T17:22:50;9.20;99.90
7129;DHT22;3606;52.930;8.644;2023-02-11T17:25:16;9.30;99.90
7129;DHT22;3606;52.930;8.644;2023-02-11T17:27:42;9.20;99.90
7129;DHT22;3606;52.930;8.644;2023-02-11T17:30:09;9.20;99.90
7129;DHT22;3606;52.930;8.644;2023-02-11T17:32:36;9.20;99.90
7129;DHT22;3606;52.930;8.644;2023-02-11T17:35:02;9.20;99.90
7129;DHT22;3606;52.930;8.644;2023-02-11T17:37:30;9.20;99.90
7129;DHT22;3606;52.930;8.644;2023-02-11T17:39:55;9.10;99.90
7129;DHT22;3606;52.930;8.644;2023-02-11T17:42:21;9.10;99.90
7129;DHT22;3606;52.930;8.644;2023-02-11T17:44:46;9.10;99.90
7129;DHT22;3606;52.930;8.644;2023-02-11T17:47:12;9.00;99.90
7129;DHT22;3606;52.930;8.644;2023-02-11T17:49:38;9.00;99.90
7129;DHT22;3606;52.930;8.644;2023-02-11T17:52:04;9.00;99.90
7129;DHT22;3606;52.930;8.644;2023-02-11T17:54:29;8.90;99.90
7129;DHT22;3606;52.930;8.644;2023-02-11T17:56:55;8.90;99.90
7129;DHT22;3606;52.930;8.644;2023-02-11T17:59:20;9.00;99.90
7129;DHT22;3606;52.930;8.644;2023-02-11T18:01:46;9.00;99.90
7129;DHT22;3606;52.930;8.644;2023-02-11T18:04:15;8.90;99.90
7129;DHT22;3606;52.930;8.644;2023-02-11T18:06:41;9.00;99.90
7129;DHT22;3606;52.930;8.644;2023-02-11T18:09:07;9.00;99.90
7129;DHT22;3606;52.930;8.644;2023-02-11T18:11:34;9.00;99.90
7129;DHT22;3606;52.930;8.644;2023-02-11T18:14:01;9.00;99.90
7129;DHT22;3606;52.930;8.644;2023-02-11T18:16:27;9.10;99.90
7129;DHT22;3606;52.930;8.644;2023-02-11T18:18:56;9.00;99.90
7129;DHT22;3606;52.930;8.644;2023-02-11T18:21:22;9.10;99.90
7129;DHT22;3606;52.930;8.644;2023-02-11T18:23:48;9.10;99.90
7129;DHT22;3606;52.930;8.644;2023-02-11T18:26:17;9.10;99.90
7129;DHT22;3606;52.930;8.644;2023-02-11T18:28:43;9.20;99.90
7129;DHT22;3606;52.930;8.644;2023-02-11T18:31:09;9.20;99.90
7129;DHT22;3606;52.930;8.644;2023-02-11T18:33:36;9.10;99.90
7129;DHT22;3606;52.930;8.644;2023-02-11T18:36:04;9.10;99.90
7129;DHT22;3606;52.930;8.644;2023-02-11T18:38:30;9.10;99.90
7129;DHT22;3606;52.930;8.644;2023-02-11T18:40:56;9.00;99.90
7129;DHT22;3606;52.930;8.644;2023-02-11T18:43:22;9.10;99.90
7129;DHT22;3606;52.930;8.644;2023-02-11T18:45:49;9.10;99.90
7129;DHT22;3606;52.930;8.644;2023-02-11T18:48:16;9.00;99.90
7129;DHT22;3606;52.930;8.644;2023-02-11T18:50:43;9.00;99.90
7129;DHT22;3606;52.930;8.644;2023-02-11T18:53:10;9.00;99.90